Vyacheslav Tikhonov — UBSH6 — position and weather

sailwx.info

Track history (hours):
 
Tides and Currents Weather Stations Pressure Air Temp Water Temp Dewpoint Dewpoint Depression Visibility Wind Speed Wind Dir Waves Ship Positions

Vyacheslav Tikhonov

Last reported at 2016-Sep-17 00:33 UTC. Time now 2016-Sep-29 03:24 UTC.
Position N 71°43' E 059°51'.
Warning: this ship's position is 12 days out of date.

Length 84 m; draft 6.8 m.

Type: Other ship. MMSI: 273350140.

Date/timePositionNaut miles runAvg speedWind from/ knotsBaromVisibWave heightAir tempDewpointWater temp
2016-Sep-17 00:33N 71°43' E 059°51'31 4.5
2016-Sep-16 17:33N 71°17' E 058°58'8 4.0
2016-Sep-16 15:30N 71°09' E 058°48'  
2016-Sep-12 23:33N 69°01' E 033°03'1 0.7
2016-Sep-12 21:32N 68°59' E 033°02'0 0.0
2016-Sep-12 19:32N 68°59' E 033°02'0 0.0
2016-Sep-12 17:32N 68°59' E 033°02'0 0.0
2016-Sep-12 14:32N 68°59' E 033°02'0 0.0
2016-Sep-12 13:33N 68°59' E 033°02'2 1.6
2016-Sep-12 12:32N 68°58' E 033°02'0 0.0
2016-Sep-12 11:32N 68°58' E 033°02'0 0.0
2016-Sep-12 10:32N 68°58' E 033°02'0 0.0
2016-Sep-12 07:32N 68°58' E 033°02'0 0.0
2016-Sep-12 06:32N 68°58' E 033°02'0 0.0
2016-Sep-12 03:32N 68°58' E 033°02'0 0.0
2016-Sep-12 01:32N 68°58' E 033°02'0 0.0
2016-Sep-11 23:32N 68°58' E 033°02'0 0.0
2016-Sep-11 22:32N 68°58' E 033°02'0 0.0
2016-Sep-11 21:32N 68°58' E 033°02'0 0.0
2016-Sep-11 20:32N 68°58' E 033°02'0 0.0
2016-Sep-11 19:32N 68°58' E 033°02'0 0.0
2016-Sep-11 18:32N 68°58' E 033°02'0 0.0
2016-Sep-11 17:32N 68°58' E 033°02'0 0.0
2016-Sep-11 16:32N 68°58' E 033°02'0 0.0
2016-Sep-11 15:32N 68°58' E 033°02'0 0.0
2016-Sep-11 14:32N 68°58' E 033°02'0 0.0
2016-Sep-11 13:32N 68°58' E 033°02'0 0.0
2016-Sep-11 12:32N 68°58' E 033°02'0 0.1
2016-Sep-11 11:34N 68°58' E 033°02'3 2.8
2016-Sep-11 10:32N 69°00' E 033°02'0 0.0
2016-Sep-11 08:33N 69°00' E 033°02'9410.2
2016-Sep-10 23:19N 69°20' E 037°21'1114.3
2016-Sep-10 22:33N 69°18' E 037°52'1514.6
2016-Sep-10 21:34N 69°16' E 038°32'1514.6
2016-Sep-10 20:33N 69°13' E 039°13'1514.6
2016-Sep-10 19:34N 69°12' E 039°53'1514.8
2016-Sep-10 18:34N 69°10' E 040°35'1514.6
2016-Sep-10 17:34N 69°09' E 041°16'10 9.9
2016-Sep-10 16:33N 69°10' E 041°43'161 9.4
2016-Sep-09 23:28N 69°58' E 049°04'1213.4
2016-Sep-09 22:33N 69°60' E 049°39'1413.9
2016-Sep-09 21:34N 70°00' E 050°20'1414.4
2016-Sep-09 20:34N 70°02' E 051°01'1414.4
2016-Sep-09 19:33N 70°04' E 051°43'1414.4
2016-Sep-09 18:34N 70°05' E 052°25'1313.1
2016-Sep-09 17:33N 70°07' E 053°03'10 9.7
2016-Sep-09 16:33N 70°08' E 053°32'10 9.8
2016-Sep-09 15:33N 70°09' E 054°01'10 9.7
2016-Sep-09 14:33N 70°10' E 054°29'10 9.5
2016-Sep-09 13:33N 70°11' E 054°57'10 9.6
2016-Sep-09 12:33N 70°11' E 055°26'1 1.4
2016-Sep-09 11:34N 70°11' E 055°30'10 4.3
2016-Sep-09 09:18N 70°12' E 055°58'912.3
2016-Sep-09 08:33N 70°13' E 056°25'1212.2
2016-Sep-09 07:33N 70°14' E 057°00'1212.2
2016-Sep-09 06:33N 70°16' E 057°36'1211.8
2016-Sep-09 05:33N 70°26' E 057°56'1111.3
2016-Sep-09 04:33N 70°34' E 058°20'1111.5
2016-Sep-09 03:33N 70°40' E 058°49'1211.8
2016-Sep-09 02:33N 70°47' E 059°18'1211.6
2016-Sep-09 01:33N 70°53' E 059°48'5 4.6
2016-Sep-09 00:33N 70°56' E 059°59'3 2.8
2016-Sep-08 23:34N 70°57' E 060°06'3 3.0
2016-Sep-08 22:33N 70°59' E 060°14'3 3.2
2016-Sep-08 21:33N 71°01' E 060°22'3 3.3
2016-Sep-08 20:33N 71°03' E 060°30'3 3.4
2016-Sep-08 19:33N 71°05' E 060°39'4 3.7
2016-Sep-08 18:34N 71°07' E 060°49'4 3.7
2016-Sep-08 17:33N 71°09' E 060°58'4 3.7
2016-Sep-08 16:34N 71°11' E 061°08'3 3.4
2016-Sep-08 15:34N 71°13' E 061°16'92 3.7
2016-Sep-07 14:33N 72°04' E 065°19'4 3.8
2016-Sep-07 13:33N 72°06' E 065°29'4 3.8
2016-Sep-07 12:33N 72°08' E 065°40'4 4.1
2016-Sep-07 11:33N 72°04' E 065°47'5 5.2
2016-Sep-07 10:34N 71°59' E 065°51'5 5.2
2016-Sep-07 09:33N 71°55' E 065°59'5 5.2
2016-Sep-07 08:33N 71°50' E 066°05'5 5.4
2016-Sep-07 07:33N 71°45' E 066°09'5 5.4
2016-Sep-07 06:33N 71°40' E 066°14'4 1.9
2016-Sep-07 04:33N 71°39' E 066°25'5 4.7
2016-Sep-07 03:33N 71°43' E 066°18'5 4.7
2016-Sep-07 02:33N 71°47' E 066°15'5 5.1
2016-Sep-07 01:33N 71°52' E 066°11'5 5.2
2016-Sep-07 00:33N 71°57' E 066°07'  
Track history (hours):
 
Tides and Currents Weather Stations Pressure Air Temp Water Temp Dewpoint Dewpoint Depression Visibility Wind Speed Wind Dir Waves Ship Positions

Vyacheslav Tikhonov

Last reported at 2016-Sep-17 00:33 UTC. Time now 2016-Sep-29 03:24 UTC.
Position N 71°43' E 059°51'.
Warning: this ship's position is 12 days out of date.

Length 84 m; draft 6.8 m.

Type: Other ship. MMSI: 273350140.

Date/timePositionNaut miles runAvg speedWind from/ knotsBaromVisibWave heightAir tempDewpointWater temp
2016-Sep-17 00:33N 71°43' E 059°51'31 4.5
2016-Sep-16 17:33N 71°17' E 058°58'8 4.0
2016-Sep-16 15:30N 71°09' E 058°48'  
2016-Sep-12 23:33N 69°01' E 033°03'1 0.7
2016-Sep-12 21:32N 68°59' E 033°02'0 0.0
2016-Sep-12 19:32N 68°59' E 033°02'0 0.0
2016-Sep-12 17:32N 68°59' E 033°02'0 0.0
2016-Sep-12 14:32N 68°59' E 033°02'0 0.0
2016-Sep-12 13:33N 68°59' E 033°02'2 1.6
2016-Sep-12 12:32N 68°58' E 033°02'0 0.0
2016-Sep-12 11:32N 68°58' E 033°02'0 0.0
2016-Sep-12 10:32N 68°58' E 033°02'0 0.0
2016-Sep-12 07:32N 68°58' E 033°02'0 0.0
2016-Sep-12 06:32N 68°58' E 033°02'0 0.0
2016-Sep-12 03:32N 68°58' E 033°02'0 0.0
2016-Sep-12 01:32N 68°58' E 033°02'0 0.0
2016-Sep-11 23:32N 68°58' E 033°02'0 0.0
2016-Sep-11 22:32N 68°58' E 033°02'0 0.0
2016-Sep-11 21:32N 68°58' E 033°02'0 0.0
2016-Sep-11 20:32N 68°58' E 033°02'0 0.0
2016-Sep-11 19:32N 68°58' E 033°02'0 0.0
2016-Sep-11 18:32N 68°58' E 033°02'0 0.0
2016-Sep-11 17:32N 68°58' E 033°02'0 0.0
2016-Sep-11 16:32N 68°58' E 033°02'0 0.0
2016-Sep-11 15:32N 68°58' E 033°02'0 0.0
2016-Sep-11 14:32N 68°58' E 033°02'0 0.0
2016-Sep-11 13:32N 68°58' E 033°02'0 0.0
2016-Sep-11 12:32N 68°58' E 033°02'0 0.1
2016-Sep-11 11:34N 68°58' E 033°02'3 2.8
2016-Sep-11 10:32N 69°00' E 033°02'0 0.0
2016-Sep-11 08:33N 69°00' E 033°02'9410.2
2016-Sep-10 23:19N 69°20' E 037°21'1114.3
2016-Sep-10 22:33N 69°18' E 037°52'1514.6
2016-Sep-10 21:34N 69°16' E 038°32'1514.6
2016-Sep-10 20:33N 69°13' E 039°13'1514.6
2016-Sep-10 19:34N 69°12' E 039°53'1514.8
2016-Sep-10 18:34N 69°10' E 040°35'1514.6
2016-Sep-10 17:34N 69°09' E 041°16'10 9.9
2016-Sep-10 16:33N 69°10' E 041°43'161 9.4
2016-Sep-09 23:28N 69°58' E 049°04'1213.4
2016-Sep-09 22:33N 69°60' E 049°39'1413.9
2016-Sep-09 21:34N 70°00' E 050°20'1414.4
2016-Sep-09 20:34N 70°02' E 051°01'1414.4
2016-Sep-09 19:33N 70°04' E 051°43'1414.4
2016-Sep-09 18:34N 70°05' E 052°25'1313.1
2016-Sep-09 17:33N 70°07' E 053°03'10 9.7
2016-Sep-09 16:33N 70°08' E 053°32'10 9.8
2016-Sep-09 15:33N 70°09' E 054°01'10 9.7
2016-Sep-09 14:33N 70°10' E 054°29'10 9.5
2016-Sep-09 13:33N 70°11' E 054°57'10 9.6
2016-Sep-09 12:33N 70°11' E 055°26'1 1.4
2016-Sep-09 11:34N 70°11' E 055°30'10 4.3
2016-Sep-09 09:18N 70°12' E 055°58'912.3
2016-Sep-09 08:33N 70°13' E 056°25'1212.2
2016-Sep-09 07:33N 70°14' E 057°00'1212.2
2016-Sep-09 06:33N 70°16' E 057°36'1211.8
2016-Sep-09 05:33N 70°26' E 057°56'1111.3
2016-Sep-09 04:33N 70°34' E 058°20'1111.5
2016-Sep-09 03:33N 70°40' E 058°49'1211.8
2016-Sep-09 02:33N 70°47' E 059°18'1211.6
2016-Sep-09 01:33N 70°53' E 059°48'5 4.6
2016-Sep-09 00:33N 70°56' E 059°59'3 2.8
2016-Sep-08 23:34N 70°57' E 060°06'3 3.0
2016-Sep-08 22:33N 70°59' E 060°14'3 3.2
2016-Sep-08 21:33N 71°01' E 060°22'3 3.3
2016-Sep-08 20:33N 71°03' E 060°30'3 3.4
2016-Sep-08 19:33N 71°05' E 060°39'4 3.7
2016-Sep-08 18:34N 71°07' E 060°49'4 3.7
2016-Sep-08 17:33N 71°09' E 060°58'4 3.7
2016-Sep-08 16:34N 71°11' E 061°08'3 3.4
2016-Sep-08 15:34N 71°13' E 061°16'92 3.7
2016-Sep-07 14:33N 72°04' E 065°19'4 3.8
2016-Sep-07 13:33N 72°06' E 065°29'4 3.8
2016-Sep-07 12:33N 72°08' E 065°40'4 4.1
2016-Sep-07 11:33N 72°04' E 065°47'5 5.2
2016-Sep-07 10:34N 71°59' E 065°51'5 5.2
2016-Sep-07 09:33N 71°55' E 065°59'5 5.2
2016-Sep-07 08:33N 71°50' E 066°05'5 5.4
2016-Sep-07 07:33N 71°45' E 066°09'5 5.4
2016-Sep-07 06:33N 71°40' E 066°14'4 1.9
2016-Sep-07 04:33N 71°39' E 066°25'5 4.7
2016-Sep-07 03:33N 71°43' E 066°18'5 4.7
2016-Sep-07 02:33N 71°47' E 066°15'5 5.1
2016-Sep-07 01:33N 71°52' E 066°11'5 5.2
2016-Sep-07 00:33N 71°57' E 066°07'  

Dump ship's entire track history